createdAt,value
2019-03-01T00:02:22.135Z,8.70
2019-03-01T00:04:56.470Z,9.37
2019-03-01T00:07:44.289Z,9.83
2019-03-01T00:10:21.982Z,8.33
2019-03-01T00:13:08.508Z,8.50
2019-03-01T00:15:52.652Z,8.67
2019-03-01T00:18:49.530Z,9.00
2019-03-01T00:21:25.039Z,8.07
2019-03-01T00:24:03.859Z,8.83
2019-03-01T00:26:37.545Z,8.47
2019-03-01T00:29:19.969Z,8.83
2019-03-01T00:31:52.460Z,8.87
2019-03-01T00:34:58.614Z,8.47
2019-03-01T00:37:55.579Z,7.53
2019-03-01T00:40:41.857Z,8.93
2019-03-01T00:43:27.614Z,7.93
2019-03-01T00:45:56.421Z,9.23
2019-03-01T00:48:25.150Z,9.27
2019-03-01T00:50:53.893Z,9.17
2019-03-01T00:53:22.708Z,9.43
2019-03-01T00:55:51.533Z,8.93
2019-03-01T00:58:20.282Z,8.97
2019-03-01T01:00:49.115Z,9.40
2019-03-01T01:03:17.934Z,9.93
2019-03-01T01:05:47.251Z,10.70
2019-03-01T01:08:15.969Z,10.13
2019-03-01T01:10:44.754Z,10.20
2019-03-01T01:13:13.486Z,9.70
2019-03-01T01:15:42.294Z,10.50
2019-03-01T01:18:11.089Z,10.47
2019-03-01T01:20:39.803Z,10.23
2019-03-01T01:23:08.560Z,10.00
2019-03-01T01:25:37.308Z,9.93
2019-03-01T01:28:06.051Z,10.27
2019-03-01T01:30:34.834Z,8.97
2019-03-01T01:33:03.568Z,9.83
2019-03-01T01:35:32.367Z,10.33
2019-03-01T01:38:01.203Z,9.93
2019-03-01T01:40:29.984Z,9.70
2019-03-01T01:42:58.802Z,10.50
2019-03-01T01:45:27.520Z,11.17
2019-03-01T01:47:56.320Z,12.07
2019-03-01T01:50:25.094Z,10.43
2019-03-01T01:52:53.874Z,12.27
2019-03-01T01:55:22.605Z,10.70
2019-03-01T01:57:51.324Z,12.47
2019-03-01T02:00:20.039Z,12.20
2019-03-01T02:02:48.763Z,11.30
2019-03-01T02:05:17.527Z,11.90
2019-03-01T02:07:46.230Z,12.27
2019-03-01T02:10:15.065Z,12.33
2019-03-01T02:12:43.860Z,11.50
2019-03-01T02:15:12.798Z,12.27
2019-03-01T02:17:41.609Z,13.30
2019-03-01T02:20:10.549Z,13.50
2019-03-01T02:22:39.328Z,11.60
2019-03-01T02:25:09.162Z,13.20
2019-03-01T02:27:37.888Z,12.00
2019-03-01T02:30:09.408Z,12.07
2019-03-01T02:32:42.317Z,12.17
2019-03-01T02:35:12.018Z,13.53
2019-03-01T02:37:40.809Z,12.73
2019-03-01T02:40:10.003Z,12.40
2019-03-01T02:42:38.810Z,12.50
2019-03-01T02:45:08.504Z,12.47
2019-03-01T02:47:37.288Z,13.80
2019-03-01T02:50:06.374Z,13.60
2019-03-01T02:52:35.176Z,13.57
2019-03-01T02:55:04.122Z,13.60
2019-03-01T02:57:32.858Z,13.93
2019-03-01T03:00:01.638Z,15.20
2019-03-01T03:02:30.433Z,14.57
2019-03-01T03:04:59.315Z,13.73
2019-03-01T03:07:45.303Z,15.13
2019-03-01T03:10:14.083Z,14.93
2019-03-01T03:12:42.898Z,14.97
2019-03-01T03:15:12.201Z,13.47
2019-03-01T03:17:40.936Z,14.80
2019-03-01T03:20:09.850Z,14.50
2019-03-01T03:22:38.609Z,15.07
2019-03-01T03:25:07.742Z,13.93
2019-03-01T03:27:36.565Z,14.93
2019-03-01T03:30:06.647Z,15.37
2019-03-01T03:32:35.421Z,14.77
2019-03-01T03:35:04.366Z,16.23
2019-03-01T03:37:33.091Z,15.00
2019-03-01T03:40:01.857Z,15.90
2019-03-01T03:42:30.661Z,15.50
2019-03-01T03:44:59.459Z,14.97
2019-03-01T03:47:28.357Z,14.00
2019-03-01T03:49:57.065Z,14.63
2019-03-01T03:52:25.890Z,13.20
2019-03-01T03:54:55.179Z,12.50
2019-03-01T03:57:24.020Z,12.87
2019-03-01T03:59:52.847Z,14.37
2019-03-01T04:02:21.571Z,13.83
2019-03-01T04:04:50.479Z,13.00
2019-03-01T04:07:21.378Z,13.00
2019-03-01T04:09:50.441Z,12.07
2019-03-01T04:12:19.212Z,13.50
2019-03-01T04:14:48.131Z,12.73
2019-03-01T04:17:16.947Z,11.50
2019-03-01T04:19:45.729Z,10.53
2019-03-01T04:22:14.513Z,12.27
2019-03-01T04:24:43.306Z,12.27
2019-03-01T04:27:12.106Z,12.70
2019-03-01T04:29:40.976Z,11.00
2019-03-01T04:32:09.763Z,10.70
2019-03-01T04:34:38.494Z,12.23
2019-03-01T04:37:07.320Z,11.73
2019-03-01T04:39:36.109Z,11.83
2019-03-01T04:42:04.853Z,10.00
2019-03-01T04:44:33.688Z,12.27
2019-03-01T04:47:02.430Z,11.37
2019-03-01T04:49:31.216Z,10.70
2019-03-01T04:52:00.100Z,9.10
2019-03-01T04:54:28.880Z,9.00
2019-03-01T04:56:57.629Z,9.87
2019-03-01T04:59:26.358Z,9.43
2019-03-01T05:01:55.157Z,9.13
2019-03-01T05:04:23.945Z,8.43
2019-03-01T05:06:52.726Z,8.57
2019-03-01T05:09:21.456Z,8.67
2019-03-01T05:11:50.181Z,8.93
2019-03-01T05:14:18.962Z,9.10
2019-03-01T05:16:50.786Z,8.73
2019-03-01T05:19:19.497Z,8.13
2019-03-01T05:21:48.250Z,7.63
2019-03-01T05:24:17.035Z,8.23
2019-03-01T05:26:45.784Z,7.07
2019-03-01T05:29:14.506Z,7.63
2019-03-01T05:31:45.876Z,6.50
2019-03-01T05:34:14.787Z,6.60
2019-03-01T05:36:43.554Z,7.20
2019-03-01T05:39:12.350Z,7.77
2019-03-01T05:41:41.170Z,7.50
2019-03-01T05:44:10.005Z,7.10
2019-03-01T05:46:38.804Z,6.57
2019-03-01T05:49:07.615Z,7.17
2019-03-01T05:51:36.469Z,6.70
2019-03-01T05:54:05.207Z,6.63
2019-03-01T05:56:34.057Z,6.77
2019-03-01T05:59:12.974Z,7.73
2019-03-01T06:02:16.329Z,6.03
2019-03-01T06:04:47.287Z,6.73
2019-03-01T06:07:35.218Z,6.43
2019-03-01T06:10:35.257Z,4.30
2019-03-01T06:13:21.863Z,4.63
2019-03-01T06:16:08.592Z,4.63
2019-03-01T06:19:02.580Z,4.60
2019-03-01T06:21:56.482Z,4.30
2019-03-01T06:24:43.302Z,3.97
2019-03-01T06:27:30.084Z,4.57
2019-03-01T06:30:15.044Z,3.10
2019-03-01T06:33:15.380Z,4.27
2019-03-01T06:36:02.066Z,3.37
2019-03-01T06:39:23.897Z,3.73
2019-03-01T06:42:14.403Z,2.90
2019-03-01T06:45:17.421Z,3.30
2019-03-01T06:47:50.693Z,4.10
2019-03-01T06:50:31.472Z,3.27
2019-03-01T06:53:00.464Z,4.53
2019-03-01T06:55:34.224Z,3.73
2019-03-01T06:58:03.033Z,33.20
2019-03-01T07:00:34.965Z,7.47
2019-03-01T07:03:03.784Z,3.57
2019-03-01T07:05:32.578Z,4.23
2019-03-01T07:08:01.393Z,2.77
2019-03-01T07:10:30.137Z,2.77
2019-03-01T07:12:58.979Z,2.40
2019-03-01T07:15:27.843Z,2.23
2019-03-01T07:17:56.712Z,1.83
2019-03-01T07:20:25.515Z,1.87
2019-03-01T07:22:54.362Z,2.10
2019-03-01T07:25:23.161Z,2.37
2019-03-01T07:27:51.932Z,2.47
2019-03-01T07:30:20.765Z,1.30
2019-03-01T07:32:49.562Z,1.50
2019-03-01T07:35:18.202Z,1.53
2019-03-01T07:37:46.927Z,1.50
2019-03-01T07:40:15.755Z,1.73
2019-03-01T07:42:44.678Z,1.80
2019-03-01T07:45:13.608Z,1.53
2019-03-01T07:47:42.432Z,1.30
2019-03-01T07:50:11.534Z,1.60
2019-03-01T07:52:40.586Z,1.13
2019-03-01T07:55:09.496Z,1.00
2019-03-01T07:57:38.514Z,1.20
2019-03-01T08:00:10.852Z,0.90
2019-03-01T08:02:39.720Z,0.80
2019-03-01T08:05:10.481Z,0.93
2019-03-01T08:07:39.597Z,1.03
2019-03-01T08:10:10.032Z,0.90
2019-03-01T08:12:42.605Z,1.43
2019-03-01T08:15:10.463Z,0.70
2019-03-01T08:17:39.320Z,1.20
2019-03-01T08:20:10.174Z,0.73
2019-03-01T08:22:48.044Z,0.90
2019-03-01T08:25:10.201Z,1.10
2019-03-01T08:27:41.944Z,0.83
2019-03-01T08:30:11.369Z,0.80
2019-03-01T08:32:40.197Z,0.63
2019-03-01T08:35:10.156Z,1.17
2019-03-01T08:37:39.178Z,0.97
2019-03-01T08:40:11.470Z,1.23
2019-03-01T08:42:40.607Z,0.90
2019-03-01T08:45:10.617Z,1.30
2019-03-01T08:47:39.541Z,1.00
2019-03-01T08:50:09.196Z,1.00
2019-03-01T08:52:40.482Z,0.97
2019-03-01T08:55:09.754Z,0.80
2019-03-01T08:57:44.195Z,0.67
2019-03-01T09:00:11.686Z,1.50
2019-03-01T09:02:40.471Z,1.60
2019-03-01T09:05:09.937Z,0.97
2019-03-01T09:07:38.924Z,1.07
2019-03-01T09:10:08.631Z,1.07
2019-03-01T09:12:37.426Z,1.30
2019-03-01T09:15:07.371Z,1.50
2019-03-01T09:17:37.019Z,1.10
2019-03-01T09:20:05.988Z,1.03
2019-03-01T09:22:34.799Z,1.23
2019-03-01T09:25:07.604Z,1.07
2019-03-01T09:27:34.222Z,1.63
2019-03-01T09:30:03.942Z,1.40
2019-03-01T09:32:33.907Z,1.10
2019-03-01T09:35:21.065Z,1.03
2019-03-01T09:37:49.991Z,0.97
2019-03-01T09:40:18.798Z,1.23
2019-03-01T09:42:50.664Z,1.33
2019-03-01T09:45:19.377Z,1.43
2019-03-01T09:47:48.450Z,1.33
2019-03-01T09:50:17.658Z,1.17
2019-03-01T09:52:46.869Z,0.90
2019-03-01T09:55:15.914Z,1.27
2019-03-01T09:57:44.866Z,1.27
2019-03-01T10:00:14.086Z,1.10
2019-03-01T10:02:42.815Z,0.93
2019-03-01T10:05:12.159Z,1.50
2019-03-01T10:07:40.935Z,1.07
2019-03-01T10:10:10.748Z,1.20
2019-03-01T10:12:39.543Z,1.10
2019-03-01T10:15:09.305Z,1.17
2019-03-01T10:17:38.133Z,0.97
2019-03-01T10:20:08.273Z,1.93
2019-03-01T10:22:37.011Z,1.00
2019-03-01T10:25:05.797Z,0.90
2019-03-01T10:27:34.551Z,1.13
2019-03-01T10:30:03.400Z,1.37
2019-03-01T10:32:32.205Z,1.13
2019-03-01T10:35:01.201Z,1.43
2019-03-01T10:37:29.981Z,1.33
2019-03-01T10:39:58.955Z,1.40
2019-03-01T10:42:27.805Z,1.77
2019-03-01T10:44:56.983Z,1.57
2019-03-01T10:47:25.861Z,1.60
2019-03-01T10:49:54.735Z,1.93
2019-03-01T10:52:23.651Z,1.73
2019-03-01T10:54:52.686Z,1.87
2019-03-01T10:57:21.613Z,1.70
2019-03-01T10:59:50.650Z,2.10
2019-03-01T11:02:19.801Z,2.07
2019-03-01T11:04:48.681Z,1.50
2019-03-01T11:07:17.594Z,1.90
2019-03-01T11:09:46.517Z,2.00
2019-03-01T11:12:15.569Z,2.00
2019-03-01T11:14:44.687Z,2.63
2019-03-01T11:17:13.658Z,2.17
2019-03-01T11:19:42.557Z,2.37
2019-03-01T11:22:11.469Z,2.47
2019-03-01T11:24:40.513Z,2.47
2019-03-01T11:27:12.939Z,2.47
2019-03-01T11:29:39.953Z,2.27
2019-03-01T11:32:09.060Z,1.97
2019-03-01T11:34:37.837Z,1.87
2019-03-01T11:37:06.682Z,2.10
2019-03-01T11:39:35.555Z,2.13
2019-03-01T11:42:04.384Z,2.27
2019-03-01T11:44:33.576Z,2.20
2019-03-01T11:47:02.796Z,1.80
2019-03-01T11:49:31.635Z,1.87
2019-03-01T11:52:00.515Z,2.97
2019-03-01T11:54:29.463Z,2.10
2019-03-01T11:56:58.473Z,1.97
2019-03-01T11:59:27.550Z,2.00
2019-03-01T12:01:56.524Z,2.00
2019-03-01T12:04:25.601Z,3.23
2019-03-01T12:06:54.658Z,1.83
2019-03-01T12:09:23.597Z,2.03
2019-03-01T12:11:52.530Z,1.70
2019-03-01T12:14:22.369Z,1.60
2019-03-01T12:16:51.731Z,1.50
2019-03-01T12:19:21.252Z,1.33
2019-03-01T12:21:50.101Z,1.33
2019-03-01T12:24:19.004Z,1.20
2019-03-01T12:26:47.974Z,1.43
2019-03-01T12:29:17.329Z,1.13
2019-03-01T12:31:46.150Z,1.40
2019-03-01T12:34:15.263Z,1.60
2019-03-01T12:36:44.122Z,1.43
2019-03-01T12:39:13.024Z,1.70
2019-03-01T12:41:41.953Z,14.13
2019-03-01T12:44:10.949Z,3.00
2019-03-01T12:46:39.716Z,1.50
2019-03-01T12:49:08.518Z,1.67
2019-03-01T12:51:37.308Z,1.40
2019-03-01T12:54:06.132Z,1.47
2019-03-01T12:56:34.928Z,1.27
2019-03-01T12:59:03.869Z,2.00
2019-03-01T13:01:32.709Z,1.20
2019-03-01T13:04:01.543Z,1.70
2019-03-01T13:06:30.374Z,1.90
2019-03-01T13:08:59.150Z,1.50
2019-03-01T13:11:28.089Z,2.03
2019-03-01T13:13:56.818Z,1.83
2019-03-01T13:16:26.586Z,1.70
2019-03-01T13:18:56.312Z,1.60
2019-03-01T13:21:26.406Z,1.37
2019-03-01T13:23:55.296Z,1.90
2019-03-01T13:26:26.201Z,1.73
2019-03-01T13:28:57.130Z,1.70
2019-03-01T13:31:26.244Z,1.73
2019-03-01T13:33:55.422Z,1.47
2019-03-01T13:36:24.454Z,1.47
2019-03-01T13:38:53.739Z,1.73
2019-03-01T13:41:22.978Z,1.60
2019-03-01T13:43:52.270Z,1.47
2019-03-01T13:46:21.331Z,1.90
2019-03-01T13:48:50.838Z,1.77
2019-03-01T13:51:21.467Z,1.20
2019-03-01T13:53:50.507Z,1.70
2019-03-01T13:56:22.605Z,1.67
2019-03-01T13:58:51.872Z,1.47
2019-03-01T14:01:23.723Z,1.40
2019-03-01T14:03:53.407Z,1.13
2019-03-01T14:06:22.704Z,1.70
2019-03-01T14:08:51.874Z,1.07
2019-03-01T14:11:23.403Z,1.80
2019-03-01T14:13:51.898Z,1.60
2019-03-01T14:16:21.778Z,1.70
2019-03-01T14:18:51.527Z,1.27
2019-03-01T14:21:20.680Z,1.80
2019-03-01T14:23:49.742Z,2.10
2019-03-01T14:26:19.441Z,2.00
2019-03-01T14:28:49.187Z,1.20
2019-03-01T14:31:18.391Z,1.83
2019-03-01T14:33:47.541Z,1.73
2019-03-01T14:36:16.752Z,1.63
2019-03-01T14:38:46.225Z,1.63
2019-03-01T14:41:15.381Z,1.60
2019-03-01T14:43:44.459Z,1.60
2019-03-01T14:46:13.608Z,1.40
2019-03-01T14:48:42.905Z,1.73
2019-03-01T14:51:13.123Z,1.50
2019-03-01T14:53:42.163Z,1.80
2019-03-01T14:56:14.389Z,1.87
2019-03-01T14:59:02.386Z,1.73
2019-03-01T15:01:46.773Z,2.07
2019-03-01T15:04:15.787Z,1.73
2019-03-01T15:06:44.743Z,2.30
2019-03-01T15:09:13.647Z,1.97
2019-03-01T15:11:44.288Z,2.47
2019-03-01T15:14:14.423Z,1.80
2019-03-01T15:16:44.351Z,1.80
2019-03-01T15:19:13.415Z,1.70
2019-03-01T15:21:45.265Z,1.37
2019-03-01T15:24:14.179Z,1.73
2019-03-01T15:26:46.212Z,1.67
2019-03-01T15:29:13.684Z,1.97
2019-03-01T15:31:42.670Z,1.50
2019-03-01T15:34:11.844Z,1.50
2019-03-01T15:36:40.777Z,1.20
2019-03-01T15:39:09.817Z,2.20
2019-03-01T15:41:39.195Z,1.40
2019-03-01T15:44:09.578Z,1.93
2019-03-01T15:46:38.421Z,1.97
2019-03-01T15:49:07.440Z,1.53
2019-03-01T15:51:38.202Z,1.83
2019-03-01T15:54:06.651Z,1.67
2019-03-01T15:56:35.724Z,1.80
2019-03-01T15:59:06.131Z,1.60
2019-03-01T16:01:35.752Z,1.87
2019-03-01T16:04:04.703Z,1.73
2019-03-01T16:06:33.635Z,2.00
2019-03-01T16:09:02.566Z,1.90
2019-03-01T16:11:31.443Z,1.63
2019-03-01T16:14:00.313Z,1.70
2019-03-01T16:16:29.206Z,2.03
2019-03-01T16:18:58.085Z,2.10
2019-03-01T16:21:27.010Z,1.50
2019-03-01T16:23:55.833Z,1.10
2019-03-01T16:26:29.874Z,1.70
2019-03-01T16:28:55.276Z,1.37
2019-03-01T16:31:24.953Z,1.20
2019-03-01T16:33:54.153Z,2.07
2019-03-01T16:36:30.582Z,1.53
2019-03-01T16:39:01.882Z,1.57
2019-03-01T16:41:32.420Z,2.13
2019-03-01T16:44:05.476Z,1.47
2019-03-01T16:46:32.173Z,1.83
2019-03-01T16:49:01.395Z,1.93
2019-03-01T16:51:33.083Z,2.20
2019-03-01T16:54:02.223Z,1.93
2019-03-01T16:56:34.562Z,1.83
2019-03-01T16:59:03.463Z,1.80
2019-03-01T17:01:34.080Z,1.73
2019-03-01T17:04:03.132Z,1.70
2019-03-01T17:06:34.243Z,1.63
2019-03-01T17:09:04.262Z,1.90
2019-03-01T17:11:33.267Z,1.37
2019-03-01T17:14:02.745Z,1.73
2019-03-01T17:16:34.493Z,1.70
2019-03-01T17:19:04.845Z,1.83
2019-03-01T17:21:33.782Z,1.43
2019-03-01T17:24:04.473Z,2.30
2019-03-01T17:26:38.971Z,2.13
2019-03-01T17:29:09.745Z,2.00
2019-03-01T17:31:38.594Z,2.40
2019-03-01T17:34:07.625Z,1.90
2019-03-01T17:36:36.419Z,1.97
2019-03-01T17:39:12.929Z,1.70
2019-03-01T17:41:45.881Z,1.43
2019-03-01T17:44:14.169Z,1.93
2019-03-01T17:46:42.953Z,1.70
2019-03-01T17:49:11.972Z,1.70
2019-03-01T17:51:41.474Z,2.00
2019-03-01T17:54:12.216Z,2.07
2019-03-01T17:56:41.426Z,2.10
2019-03-01T17:59:11.849Z,2.40
2019-03-01T18:01:40.770Z,2.37
2019-03-01T18:04:09.604Z,2.33
2019-03-01T18:06:40.381Z,1.80
2019-03-01T18:09:08.889Z,2.63
2019-03-01T18:11:40.675Z,2.30
2019-03-01T18:14:08.660Z,2.13
2019-03-01T18:16:37.431Z,2.40
2019-03-01T18:19:06.204Z,2.30
2019-03-01T18:21:38.812Z,1.90
2019-03-01T18:24:14.137Z,2.40
2019-03-01T18:26:45.819Z,2.60
2019-03-01T18:29:14.753Z,2.40
2019-03-01T18:31:43.710Z,2.47
2019-03-01T18:34:15.049Z,2.37
2019-03-01T18:36:46.903Z,2.57
2019-03-01T18:39:19.363Z,2.33
2019-03-01T18:41:48.136Z,2.70
2019-03-01T18:44:16.966Z,2.27
2019-03-01T18:46:51.705Z,2.63
2019-03-01T18:49:19.782Z,2.53
2019-03-01T18:51:49.577Z,2.07
2019-03-01T18:54:18.451Z,2.00
2019-03-01T18:56:48.919Z,2.07
2019-03-01T18:59:24.863Z,2.60
2019-03-01T19:01:54.598Z,2.97
2019-03-01T19:04:29.721Z,1.90
2019-03-01T19:06:54.730Z,2.27
2019-03-01T19:09:25.020Z,3.27
2019-03-01T19:11:53.923Z,2.60
2019-03-01T19:14:22.753Z,2.60
2019-03-01T19:16:51.736Z,3.20
2019-03-01T19:19:24.422Z,3.27
2019-03-01T19:21:52.656Z,2.77
2019-03-01T19:24:21.785Z,3.20
2019-03-01T19:26:53.744Z,2.73
2019-03-01T19:30:05.173Z,3.07
2019-03-01T19:32:33.667Z,3.87
2019-03-01T19:35:10.453Z,2.77
2019-03-01T19:37:40.539Z,5.00
2019-03-01T19:40:12.502Z,4.40
2019-03-01T19:42:41.594Z,3.03
2019-03-01T19:45:11.252Z,2.73
2019-03-01T19:47:40.343Z,2.40
2019-03-01T19:50:10.724Z,2.30
2019-03-01T19:52:43.504Z,2.30
2019-03-01T19:55:11.745Z,2.07
2019-03-01T19:57:41.731Z,2.40
2019-03-01T20:00:20.568Z,2.23
2019-03-01T20:02:49.539Z,1.70
2019-03-01T20:05:19.746Z,2.00
2019-03-01T20:07:51.796Z,2.30
2019-03-01T20:10:22.043Z,2.70
2019-03-01T20:12:52.668Z,2.80
2019-03-01T20:15:24.305Z,2.37
2019-03-01T20:17:54.884Z,2.60
2019-03-01T20:20:24.014Z,2.97
2019-03-01T20:22:54.086Z,2.93
2019-03-01T20:25:23.937Z,2.07
2019-03-01T20:27:52.974Z,2.10
2019-03-01T20:30:28.727Z,2.60
2019-03-01T20:32:53.684Z,2.60
2019-03-01T20:35:26.200Z,1.87
2019-03-01T20:37:55.463Z,2.37
2019-03-01T20:40:26.556Z,2.53
2019-03-01T20:42:55.999Z,1.80
2019-03-01T20:45:29.807Z,2.10
2019-03-01T20:47:57.436Z,2.33
2019-03-01T20:50:26.481Z,2.13
2019-03-01T20:52:55.510Z,1.90
2019-03-01T20:55:24.669Z,1.67
2019-03-01T20:57:53.719Z,2.30
2019-03-01T21:00:26.017Z,2.97
2019-03-01T21:02:53.603Z,1.30
2019-03-01T21:05:25.137Z,2.23
2019-03-01T21:07:54.943Z,2.00
2019-03-01T21:10:26.679Z,1.67
2019-03-01T21:12:55.629Z,2.13
2019-03-01T21:15:24.600Z,2.13
2019-03-01T21:17:56.948Z,2.53
2019-03-01T21:20:25.011Z,2.53
2019-03-01T21:22:54.009Z,2.40
2019-03-01T21:25:23.020Z,1.80
2019-03-01T21:27:51.950Z,1.70
2019-03-01T21:30:24.918Z,1.77
2019-03-01T21:32:53.940Z,1.83
2019-03-01T21:35:23.014Z,1.77
2019-03-01T21:37:52.006Z,2.10
2019-03-01T21:40:21.053Z,1.70
2019-03-01T21:42:52.910Z,1.93
2019-03-01T21:45:21.505Z,1.70
2019-03-01T21:47:51.457Z,2.30
2019-03-01T21:50:21.530Z,1.80
2019-03-01T21:52:50.388Z,2.33
2019-03-01T21:55:19.266Z,2.30
2019-03-01T21:57:48.216Z,2.37
2019-03-01T22:00:18.214Z,1.93
2019-03-01T22:02:48.943Z,1.60
2019-03-01T22:05:17.741Z,1.93
2019-03-01T22:07:56.594Z,1.70
2019-03-01T22:10:25.445Z,1.90
2019-03-01T22:12:56.922Z,1.93
2019-03-01T22:15:26.807Z,2.20
2019-03-01T22:17:55.632Z,2.00
2019-03-01T22:20:25.006Z,2.10
2019-03-01T22:22:53.802Z,2.37
2019-03-01T22:25:22.610Z,1.90
2019-03-01T22:27:51.505Z,2.97
2019-03-01T22:30:23.068Z,2.20
2019-03-01T22:33:11.508Z,1.90
2019-03-01T22:35:43.255Z,1.33
2019-03-01T22:38:10.974Z,1.97
2019-03-01T22:40:40.111Z,2.00
2019-03-01T22:43:09.318Z,2.30
2019-03-01T22:45:38.078Z,1.97
2019-03-01T22:48:11.807Z,2.07
2019-03-01T22:50:42.621Z,1.47
2019-03-01T22:53:10.420Z,1.77
2019-03-01T22:55:39.666Z,1.53
2019-03-01T22:58:08.501Z,1.67
2019-03-01T23:01:13.354Z,1.60
2019-03-01T23:03:43.371Z,1.60
2019-03-01T23:06:14.679Z,1.80
2019-03-01T23:08:42.792Z,1.97
2019-03-01T23:11:11.704Z,1.53
2019-03-01T23:13:40.533Z,1.73
2019-03-01T23:16:09.355Z,1.33
2019-03-01T23:18:40.545Z,1.70
2019-03-01T23:21:08.719Z,1.70
2019-03-01T23:23:37.524Z,1.77
2019-03-01T23:26:09.745Z,1.40
2019-03-01T23:28:40.792Z,1.63
2019-03-01T23:31:09.070Z,1.73
2019-03-01T23:33:37.998Z,1.67
2019-03-01T23:36:08.250Z,1.77
2019-03-01T23:38:38.026Z,1.60
2019-03-01T23:41:11.026Z,1.50
2019-03-01T23:43:38.493Z,1.43
2019-03-01T23:46:08.618Z,1.77
2019-03-01T23:48:37.357Z,1.40
2019-03-01T23:51:06.659Z,1.23
2019-03-01T23:53:36.664Z,1.70
2019-03-01T23:56:05.908Z,1.37
2019-03-01T23:58:34.657Z,1.60
